Terminal Aerodrome Forecast
Issued by NWS Charleston, WV

Current Version | Previous Version | Graphics & Text | Print | Product List | Glossary On
Versions: 1 2 3 4 5 6 7 8 9 10 11 12 13 14 15 16 17 18 19 20 21 22 23 24 25 26 27 28 29 30
000
FTUS41 KRLX 270929 AAC
TAFHTS
TAF AMD
KHTS 270929Z 2709/2806 13003KT 2SM BR BKN002
     FM271330 00000KT P6SM BKN010
     FM271430 25005KT P6SM SCT040
     FM271900 24005KT P6SM VCTS BKN040CB
     FM272300 VRB03KT P6SM SCT060=

USA.gov is the U.S. government's official web portal to all federal, state and local government web resources and services.